Time;durP1;ratioP1;P1;durP2;ratioP2;P2;SDS_P1;SDS_P2;PMS_P1;PMS_P2;Temp;Humidity;BMP_temperature;BMP_pressure;BME280_temperature;BME280_humidity;BME280_pressure;Samples;Min_cycle;Max_cycle;Signal;HPM_P1;HPM_P2
2021/09/06 00:01:40;;;;;;;20.00;11.70;;;16.10;99.90;;;;;;5047013;28;20048;-89
2021/09/06 00:04:06;;;;;;;20.52;11.63;;;16.00;99.90;;;;;;5043213;28;20024;-90
2021/09/06 00:06:34;;;;;;;22.15;12.27;;;16.00;99.90;;;;;;5046133;28;20032;-89
2021/09/06 00:09:00;;;;;;;19.08;11.45;;;16.00;99.90;;;;;;5044784;28;20037;-90
2021/09/06 00:11:25;;;;;;;18.13;11.40;;;15.90;99.90;;;;;;5046201;28;20017;-90
2021/09/06 00:13:51;;;;;;;20.77;11.70;;;15.90;99.90;;;;;;5042774;28;20058;-89
2021/09/06 00:16:18;;;;;;;19.88;11.45;;;15.80;99.90;;;;;;5046967;28;20021;-89
2021/09/06 00:18:43;;;;;;;19.70;11.55;;;15.80;99.90;;;;;;5044952;28;20036;-89
2021/09/06 00:21:09;;;;;;;21.55;11.45;;;15.70;99.90;;;;;;5044392;28;20409;-90
2021/09/06 00:23:35;;;;;;;16.85;11.10;;;15.70;99.90;;;;;;5045417;28;20017;-89
2021/09/06 00:26:03;;;;;;;23.63;11.85;;;15.70;99.90;;;;;;5043483;28;20013;-90
2021/09/06 00:28:29;;;;;;;23.00;12.30;;;15.70;99.90;;;;;;5045559;28;20060;-89
2021/09/06 00:30:55;;;;;;;20.55;11.00;;;15.60;99.90;;;;;;5045285;28;20060;-89
2021/09/06 00:33:20;;;;;;;22.77;12.75;;;15.60;99.90;;;;;;5043018;28;20036;-89
2021/09/06 00:35:47;;;;;;;22.17;13.50;;;15.60;99.90;;;;;;5044998;28;20017;-89
2021/09/06 00:38:14;;;;;;;19.63;11.70;;;15.60;99.90;;;;;;5043387;28;20065;-89
2021/09/06 00:40:41;;;;;;;19.38;13.18;;;15.60;99.90;;;;;;5045694;28;20449;-89
2021/09/06 00:43:07;;;;;;;21.20;12.15;;;15.60;99.90;;;;;;5044094;28;20044;-89
2021/09/06 00:45:32;;;;;;;18.45;11.80;;;15.50;99.90;;;;;;5043258;28;20089;-87
2021/09/06 00:47:58;;;;;;;20.20;11.57;;;15.50;99.90;;;;;;5043597;28;20588;-90
2021/09/06 00:50:24;;;;;;;19.73;11.85;;;15.50;99.90;;;;;;5046036;28;20497;-89
2021/09/06 00:52:49;;;;;;;19.33;12.98;;;15.40;99.90;;;;;;5045056;28;20425;-89
2021/09/06 00:55:18;;;;;;;22.85;13.13;;;15.50;99.90;;;;;;5046022;28;20026;-87
2021/09/06 00:57:44;;;;;;;20.55;13.02;;;15.40;99.90;;;;;;5046028;28;20021;-88
2021/09/06 01:00:11;;;;;;;18.52;11.82;;;15.40;99.90;;;;;;5045223;28;20446;-89
2021/09/06 01:02:37;;;;;;;19.92;12.23;;;15.40;99.90;;;;;;5046812;28;20087;-89
2021/09/06 01:05:04;;;;;;;26.50;13.07;;;15.40;99.90;;;;;;5046071;28;20071;-89
2021/09/06 01:07:29;;;;;;;22.58;13.40;;;15.40;99.90;;;;;;5041938;28;20049;-90
2021/09/06 01:09:55;;;;;;;20.17;12.18;;;15.40;99.90;;;;;;5042995;28;20741;-89
2021/09/06 01:12:21;;;;;;;21.75;12.43;;;15.40;99.90;;;;;;5045403;28;20029;-89
2021/09/06 01:14:46;;;;;;;22.55;12.10;;;15.40;99.90;;;;;;5044235;28;20067;-89
2021/09/06 01:17:12;;;;;;;25.40;12.82;;;15.40;99.90;;;;;;5046494;28;20026;-90
2021/09/06 01:19:38;;;;;;;21.35;13.10;;;15.40;99.90;;;;;;5042528;28;20041;-89
2021/09/06 01:22:05;;;;;;;22.70;13.43;;;15.40;99.90;;;;;;5050460;28;20082;-90
2021/09/06 01:24:30;;;;;;;22.05;13.18;;;15.40;99.90;;;;;;5043701;28;20017;-89
2021/09/06 01:26:56;;;;;;;20.95;12.38;;;15.30;99.90;;;;;;5046062;28;20339;-88
2021/09/06 01:29:22;;;;;;;22.63;13.32;;;15.40;99.90;;;;;;5048069;28;20039;-89
2021/09/06 01:31:47;;;;;;;24.88;13.48;;;15.30;99.90;;;;;;5042743;28;20076;-88
2021/09/06 01:34:14;;;;;;;25.48;13.43;;;15.30;99.90;;;;;;5043100;28;20390;-88
2021/09/06 01:36:40;;;;;;;22.02;12.57;;;15.30;99.90;;;;;;5044470;28;20024;-90
2021/09/06 01:39:06;;;;;;;27.90;13.52;;;15.30;99.90;;;;;;5044618;28;20052;-89
2021/09/06 01:41:32;;;;;;;20.42;12.25;;;15.20;99.90;;;;;;5041377;28;20018;-90
2021/09/06 01:43:58;;;;;;;24.65;13.90;;;15.20;99.90;;;;;;5045213;28;20029;-90
2021/09/06 01:46:30;;;;;;;21.77;13.25;;;15.20;99.90;;;;;;5044365;28;20017;-89
2021/09/06 01:48:57;;;;;;;25.52;13.40;;;15.20;99.90;;;;;;5045315;28;20044;-90
2021/09/06 01:51:24;;;;;;;21.50;14.15;;;15.20;99.90;;;;;;5045886;28;20028;-88
2021/09/06 01:53:51;;;;;;;21.23;13.57;;;15.20;99.90;;;;;;5044198;28;20107;-89
2021/09/06 01:56:16;;;;;;;23.48;14.00;;;15.20;99.90;;;;;;5046407;28;20025;-89
2021/09/06 01:58:43;;;;;;;25.25;13.05;;;15.20;99.90;;;;;;5043331;28;20017;-89
2021/09/06 02:01:09;;;;;;;24.92;14.63;;;15.20;99.90;;;;;;5044709;28;20025;-89
2021/09/06 02:03:35;;;;;;;24.05;13.65;;;15.20;99.90;;;;;;5055304;28;20040;-89
2021/09/06 02:06:00;;;;;;;23.02;13.80;;;15.20;99.90;;;;;;5053425;28;20014;-88
2021/09/06 02:08:26;;;;;;;21.92;13.55;;;15.20;99.90;;;;;;5050213;28;20033;-90
2021/09/06 02:10:54;;;;;;;27.42;13.95;;;15.20;99.90;;;;;;5049290;28;20028;-89
2021/09/06 02:13:20;;;;;;;30.85;13.63;;;15.20;99.90;;;;;;5046734;28;20021;-89
2021/09/06 02:15:45;;;;;;;18.52;12.93;;;15.30;99.90;;;;;;5042366;28;20048;-89
2021/09/06 02:18:11;;;;;;;26.38;14.40;;;15.20;99.90;;;;;;5042424;28;20020;-90
2021/09/06 02:20:37;;;;;;;24.17;13.55;;;15.20;99.90;;;;;;5045847;28;20061;-89
2021/09/06 02:23:02;;;;;;;27.15;14.30;;;15.20;99.90;;;;;;5043218;28;20025;-89
2021/09/06 02:25:28;;;;;;;27.10;15.27;;;15.20;99.90;;;;;;5043130;28;20021;-89
2021/09/06 02:27:54;;;;;;;21.50;12.65;;;15.20;99.90;;;;;;5042617;28;20044;-89
2021/09/06 02:30:19;;;;;;;24.40;13.98;;;15.20;99.90;;;;;;5043063;28;20026;-88
2021/09/06 02:32:45;;;;;;;21.50;12.85;;;15.20;99.90;;;;;;5044173;28;20024;-89
2021/09/06 02:35:11;;;;;;;28.25;14.57;;;15.20;99.90;;;;;;5044035;28;20014;-88
2021/09/06 02:37:37;;;;;;;23.20;14.45;;;15.20;99.90;;;;;;5045424;28;20044;-88
2021/09/06 02:40:03;;;;;;;21.90;13.82;;;15.30;99.90;;;;;;5044986;28;20489;-89
2021/09/06 02:42:29;;;;;;;22.08;13.48;;;15.30;99.90;;;;;;5040870;28;20016;-89
2021/09/06 02:44:55;;;;;;;24.30;14.30;;;15.30;99.90;;;;;;5040846;28;20118;-89
2021/09/06 02:47:20;;;;;;;22.58;13.77;;;15.30;99.90;;;;;;5044593;28;20446;-89
2021/09/06 02:49:46;;;;;;;19.23;12.50;;;15.30;99.90;;;;;;5043737;28;20029;-89
2021/09/06 02:52:11;;;;;;;24.58;13.45;;;15.20;99.90;;;;;;5040873;28;20028;-90
2021/09/06 02:54:37;;;;;;;22.17;13.95;;;15.20;99.90;;;;;;5040581;28;20053;-89
2021/09/06 02:57:03;;;;;;;29.88;13.90;;;15.10;99.90;;;;;;5040250;28;20044;-90
2021/09/06 02:59:29;;;;;;;22.88;13.80;;;15.10;99.90;;;;;;5041633;28;20021;-90
2021/09/06 03:01:54;;;;;;;24.58;14.07;;;15.00;99.90;;;;;;5040755;28;20025;-89
2021/09/06 03:04:21;;;;;;;22.50;14.40;;;15.00;99.90;;;;;;5044091;28;20039;-90
2021/09/06 03:06:47;;;;;;;24.75;14.45;;;15.00;99.90;;;;;;5042713;28;20025;-88
2021/09/06 03:09:13;;;;;;;20.75;13.95;;;15.00;99.90;;;;;;5043270;28;20609;-87
2021/09/06 03:11:39;;;;;;;24.70;15.13;;;15.00;99.90;;;;;;5044608;28;20074;-89
2021/09/06 03:14:05;;;;;;;25.40;14.23;;;15.00;99.90;;;;;;5042776;28;20489;-89
2021/09/06 03:16:31;;;;;;;26.85;14.32;;;15.00;99.90;;;;;;5043010;28;20048;-89
2021/09/06 03:18:56;;;;;;;26.67;14.30;;;15.00;99.90;;;;;;5040662;28;20025;-88
2021/09/06 03:21:22;;;;;;;26.17;14.02;;;15.00;99.90;;;;;;5040561;28;20108;-88
2021/09/06 03:23:48;;;;;;;25.15;15.02;;;15.10;99.90;;;;;;5043570;28;20524;-89
2021/09/06 03:26:16;;;;;;;25.02;14.30;;;15.00;99.90;;;;;;5040708;28;20025;-89
2021/09/06 03:28:43;;;;;;;25.27;14.77;;;15.00;99.90;;;;;;5045022;28;20033;-89
2021/09/06 03:31:09;;;;;;;26.05;15.77;;;15.00;99.90;;;;;;5041092;28;20018;-90
2021/09/06 03:33:35;;;;;;;31.90;15.80;;;15.00;99.90;;;;;;5041474;28;20096;-89
2021/09/06 03:36:00;;;;;;;22.50;14.40;;;15.00;99.90;;;;;;5043335;28;20021;-89
2021/09/06 03:38:26;;;;;;;24.90;15.27;;;15.00;99.90;;;;;;5039849;28;20069;-89
2021/09/06 03:40:51;;;;;;;28.42;15.68;;;15.00;99.90;;;;;;5041776;28;20084;-89
2021/09/06 03:43:17;;;;;;;25.33;14.20;;;15.00;99.90;;;;;;5041085;28;20099;-90
2021/09/06 03:45:43;;;;;;;26.00;15.38;;;15.00;99.90;;;;;;5042877;28;20021;-89
2021/09/06 03:48:08;;;;;;;28.42;14.63;;;14.90;99.90;;;;;;5043077;28;20379;-89
2021/09/06 03:50:34;;;;;;;24.70;13.68;;;15.00;99.90;;;;;;5039932;28;20017;-89
2021/09/06 03:53:00;;;;;;;24.77;14.85;;;15.00;99.90;;;;;;5039482;28;20491;-89
2021/09/06 03:55:25;;;;;;;24.13;15.25;;;14.90;99.90;;;;;;5041478;28;20020;-90
2021/09/06 03:57:51;;;;;;;27.08;15.27;;;14.90;99.90;;;;;;5040444;28;20029;-89
2021/09/06 04:00:17;;;;;;;24.67;14.32;;;14.90;99.90;;;;;;5039988;28;20482;-89
2021/09/06 04:02:43;;;;;;;24.88;15.50;;;14.90;99.90;;;;;;5040217;28;20030;-89
2021/09/06 04:05:09;;;;;;;29.85;14.50;;;15.00;99.90;;;;;;5042372;28;20554;-89
2021/09/06 04:07:35;;;;;;;22.60;15.23;;;15.00;99.90;;;;;;5043247;28;20486;-89
2021/09/06 04:10:00;;;;;;;30.48;15.30;;;15.00;99.90;;;;;;5043469;28;20025;-90
2021/09/06 04:12:26;;;;;;;28.20;16.02;;;15.00;99.90;;;;;;5044275;28;20457;-89
2021/09/06 04:14:52;;;;;;;26.45;15.07;;;15.00;99.90;;;;;;5046428;28;20026;-89
2021/09/06 04:17:18;;;;;;;24.58;15.07;;;15.00;99.90;;;;;;5055318;28;20021;-89
2021/09/06 04:19:43;;;;;;;28.05;15.45;;;15.00;99.90;;;;;;5037053;28;20497;-89
2021/09/06 04:22:09;;;;;;;28.83;15.93;;;15.00;99.90;;;;;;5050339;28;20552;-89
2021/09/06 04:24:35;;;;;;;24.95;14.10;;;15.00;99.90;;;;;;5051538;28;20028;-89
2021/09/06 04:27:01;;;;;;;27.38;15.60;;;15.00;99.90;;;;;;5053529;28;20030;-90
2021/09/06 04:29:27;;;;;;;22.13;14.13;;;14.90;99.90;;;;;;5070668;28;20026;-87
2021/09/06 04:31:53;;;;;;;24.58;14.98;;;14.90;99.90;;;;;;5068787;28;20040;-89
2021/09/06 04:34:19;;;;;;;22.70;14.77;;;14.90;99.90;;;;;;5061271;28;20038;-89
2021/09/06 04:36:45;;;;;;;24.13;14.98;;;14.90;99.90;;;;;;5040818;28;20509;-90
2021/09/06 04:39:10;;;;;;;24.27;14.07;;;14.90;99.90;;;;;;5043970;28;20136;-89
2021/09/06 04:41:36;;;;;;;27.42;14.75;;;14.80;99.90;;;;;;5044902;28;20493;-90
2021/09/06 04:44:02;;;;;;;24.75;14.05;;;14.80;99.90;;;;;;5042951;28;20021;-89
2021/09/06 04:46:27;;;;;;;26.17;14.00;;;14.80;99.90;;;;;;5044484;28;20103;-89
2021/09/06 04:48:53;;;;;;;21.13;13.43;;;14.80;99.90;;;;;;5047379;28;20037;-89
2021/09/06 04:51:19;;;;;;;22.58;13.68;;;14.80;99.90;;;;;;5043646;28;20025;-89
2021/09/06 04:53:47;;;;;;;22.67;13.77;;;14.80;99.90;;;;;;5045984;28;20056;-89
2021/09/06 04:56:14;;;;;;;25.65;13.80;;;14.80;99.90;;;;;;5045698;28;20021;-88
2021/09/06 04:58:40;;;;;;;25.70;14.52;;;14.80;99.90;;;;;;5048725;28;20107;-90
2021/09/06 05:01:06;;;;;;;25.88;14.85;;;14.80;99.90;;;;;;5047496;28;20112;-90
2021/09/06 05:03:32;;;;;;;22.10;13.98;;;14.80;99.90;;;;;;5049181;28;20067;-88
2021/09/06 05:05:59;;;;;;;23.05;13.55;;;14.80;99.90;;;;;;5052532;28;20033;-88
2021/09/06 05:08:26;;;;;;;24.63;14.00;;;14.80;99.90;;;;;;5052318;28;20111;-88
2021/09/06 05:10:52;;;;;;;25.77;15.25;;;14.90;99.90;;;;;;5046863;28;20033;-88
2021/09/06 05:13:18;;;;;;;25.73;14.68;;;14.80;99.90;;;;;;5049295;28;21077;-88
2021/09/06 05:15:43;;;;;;;22.48;13.68;;;14.80;99.90;;;;;;5050911;28;20171;-89
2021/09/06 05:18:10;;;;;;;26.85;15.10;;;14.80;99.90;;;;;;5036831;28;20029;-88
2021/09/06 05:20:37;;;;;;;25.77;14.52;;;14.80;99.90;;;;;;5044399;28;20022;-88
2021/09/06 05:23:03;;;;;;;25.48;14.30;;;14.80;99.90;;;;;;5052148;28;20033;-90
2021/09/06 05:25:29;;;;;;;20.88;13.40;;;14.80;99.90;;;;;;5044376;28;20364;-86
2021/09/06 05:27:54;;;;;;;25.98;14.50;;;14.70;99.90;;;;;;5045488;28;20037;-86
2021/09/06 05:30:20;;;;;;;26.90;14.63;;;14.70;99.90;;;;;;5042120;28;20047;-87
2021/09/06 05:32:46;;;;;;;25.95;14.15;;;14.70;99.90;;;;;;5043652;28;20043;-87
2021/09/06 05:35:12;;;;;;;25.58;14.88;;;14.70;99.90;;;;;;5042168;28;20109;-85
2021/09/06 05:37:37;;;;;;;21.80;13.77;;;14.70;99.90;;;;;;5044081;28;20060;-87
2021/09/06 05:40:04;;;;;;;24.40;14.07;;;14.70;99.90;;;;;;5051441;28;20036;-87
2021/09/06 05:42:30;;;;;;;22.52;14.25;;;14.60;99.90;;;;;;5049608;28;20446;-87
2021/09/06 05:44:56;;;;;;;24.63;13.52;;;14.60;99.90;;;;;;5048761;28;20026;-89
2021/09/06 05:47:22;;;;;;;22.23;13.43;;;14.60;99.90;;;;;;5051777;28;20033;-89
2021/09/06 05:49:47;;;;;;;24.02;13.93;;;14.60;99.90;;;;;;5046772;28;20398;-88
2021/09/06 05:52:13;;;;;;;21.90;12.45;;;14.60;99.90;;;;;;5047558;28;20029;-87
2021/09/06 05:54:39;;;;;;;24.52;14.32;;;14.60;99.90;;;;;;5044807;28;20036;-87
2021/09/06 05:57:05;;;;;;;23.30;14.75;;;14.60;99.90;;;;;;5043319;28;20017;-88
2021/09/06 05:59:30;;;;;;;26.83;14.85;;;14.60;99.90;;;;;;5045021;28;20051;-86
2021/09/06 06:01:56;;;;;;;26.52;16.33;;;14.60;99.90;;;;;;5045201;28;20026;-86
2021/09/06 06:04:22;;;;;;;23.42;15.52;;;14.60;99.90;;;;;;5050964;28;20049;-87
2021/09/06 06:06:48;;;;;;;29.48;16.25;;;14.60;99.90;;;;;;5043609;28;20116;-86
2021/09/06 06:09:13;;;;;;;28.10;17.13;;;14.60;99.90;;;;;;5049932;28;20032;-89
2021/09/06 06:11:41;;;;;;;25.20;15.52;;;14.60;99.90;;;;;;5046707;28;20111;-87
2021/09/06 06:14:07;;;;;;;30.70;16.67;;;14.60;99.90;;;;;;5039394;28;20025;-87
2021/09/06 06:16:33;;;;;;;26.10;15.60;;;14.60;99.90;;;;;;5037416;28;20055;-88
2021/09/06 06:18:59;;;;;;;25.83;15.43;;;14.60;99.90;;;;;;5039098;28;20061;-88
2021/09/06 06:21:24;;;;;;;24.48;15.05;;;14.60;99.90;;;;;;5041203;28;20014;-89
2021/09/06 06:23:50;;;;;;;27.42;15.63;;;14.60;99.90;;;;;;5043586;28;20021;-88
2021/09/06 06:26:16;;;;;;;27.58;15.35;;;14.50;99.90;;;;;;5042349;28;20100;-87
2021/09/06 06:28:42;;;;;;;25.55;14.52;;;14.50;99.90;;;;;;5045464;28;20060;-86
2021/09/06 06:31:08;;;;;;;27.30;15.98;;;14.50;99.90;;;;;;5051301;28;20025;-87
2021/09/06 06:33:34;;;;;;;28.77;15.50;;;14.50;99.90;;;;;;5050083;28;20025;-87
2021/09/06 06:36:02;;;;;;;29.23;15.77;;;14.50;99.90;;;;;;5066293;28;20461;-88
2021/09/06 06:38:29;;;;;;;32.45;15.55;;;14.50;99.90;;;;;;5047060;28;20152;-87
2021/09/06 06:40:54;;;;;;;32.03;15.93;;;14.50;99.90;;;;;;5047657;28;20410;-89
2021/09/06 06:43:20;;;;;;;28.23;15.25;;;14.60;99.90;;;;;;5038677;28;20018;-87
2021/09/06 06:45:46;;;;;;;27.33;16.80;;;14.50;99.90;;;;;;5037976;28;20033;-88
2021/09/06 06:48:12;;;;;;;24.50;14.32;;;14.50;99.90;;;;;;5043422;28;20036;-89
2021/09/06 06:50:38;;;;;;;28.45;15.65;;;14.60;99.90;;;;;;5043991;28;20040;-88
2021/09/06 06:53:04;;;;;;;25.98;15.82;;;14.60;99.90;;;;;;5042045;28;20124;-88
2021/09/06 06:55:30;;;;;;;24.73;14.02;;;14.60;99.90;;;;;;5032710;28;20029;-88
2021/09/06 06:57:55;;;;;;;22.73;15.10;;;14.60;99.90;;;;;;5050042;28;20070;-88
2021/09/06 07:00:22;;;;;;;26.38;15.35;;;14.60;99.90;;;;;;5050018;28;20049;-88
2021/09/06 07:02:48;;;;;;;24.90;14.48;;;14.70;99.90;;;;;;5043583;28;20029;-90
2021/09/06 07:05:14;;;;;;;25.73;14.95;;;14.70;99.90;;;;;;5049956;28;20052;-90
2021/09/06 07:07:40;;;;;;;29.55;16.73;;;14.70;99.90;;;;;;5051766;28;20090;-88
2021/09/06 07:10:06;;;;;;;26.85;17.13;;;14.70;99.90;;;;;;5051703;28;20099;-89
2021/09/06 07:12:32;;;;;;;30.83;16.98;;;14.80;99.90;;;;;;5051805;28;20032;-90
2021/09/06 07:14:58;;;;;;;35.00;17.73;;;14.80;99.90;;;;;;5045623;28;20379;-90
2021/09/06 07:17:24;;;;;;;33.25;18.67;;;14.80;99.90;;;;;;5043056;28;20024;-89
2021/09/06 07:19:49;;;;;;;30.67;17.60;;;14.90;99.90;;;;;;5042452;28;20022;-91
2021/09/06 07:22:15;;;;;;;27.17;17.15;;;15.00;99.90;;;;;;5034298;28;20021;-91
2021/09/06 07:24:41;;;;;;;26.75;17.35;;;15.00;99.90;;;;;;5042077;28;20029;-92
2021/09/06 07:27:07;;;;;;;30.05;16.83;;;15.10;99.90;;;;;;5041982;28;20036;-93
2021/09/06 07:29:32;;;;;;;25.40;16.00;;;15.10;99.90;;;;;;5042476;28;20582;-90
2021/09/06 07:32:00;;;;;;;27.42;16.13;;;15.20;99.90;;;;;;5045230;28;20116;-90
2021/09/06 07:34:25;;;;;;;29.52;15.23;;;15.30;99.90;;;;;;5045611;28;20053;-90
2021/09/06 07:36:51;;;;;;;30.67;16.83;;;15.40;99.90;;;;;;5044378;28;20079;-91
2021/09/06 07:39:18;;;;;;;27.90;16.90;;;15.60;99.90;;;;;;5041110;28;20052;-91
2021/09/06 07:41:44;;;;;;;27.00;16.15;;;15.60;99.90;;;;;;5046905;28;20055;-91
2021/09/06 07:44:10;;;;;;;28.45;15.85;;;15.80;99.90;;;;;;5037574;28;20037;-90
2021/09/06 07:46:36;;;;;;;30.77;17.20;;;15.90;99.90;;;;;;5047127;28;20021;-90
2021/09/06 07:51:38;;;;;;;32.53;15.60;;;16.10;99.90;;;;;;5171135;22;20057;-92
2021/09/06 07:54:06;;;;;;;33.10;16.52;;;16.20;99.90;;;;;;5037352;28;20029;-92
2021/09/06 07:56:31;;;;;;;36.53;16.52;;;16.40;99.90;;;;;;5037583;28;20017;-92
2021/09/06 07:58:57;;;;;;;37.03;16.35;;;16.50;99.90;;;;;;5035129;28;20021;-92
2021/09/06 08:01:23;;;;;;;32.00;16.40;;;16.60;99.90;;;;;;5034924;28;20017;-89
2021/09/06 08:03:48;;;;;;;29.08;15.57;;;16.70;99.90;;;;;;5035469;28;20048;-90
2021/09/06 08:06:14;;;;;;;38.80;16.88;;;16.80;99.90;;;;;;5037253;28;20026;-90
2021/09/06 08:08:40;;;;;;;24.73;14.55;;;16.90;99.90;;;;;;5035967;28;20094;-90
2021/09/06 08:11:05;;;;;;;30.08;16.67;;;16.90;99.90;;;;;;5035619;28;20025;-91
2021/09/06 08:13:32;;;;;;;30.00;15.85;;;17.00;99.90;;;;;;5036740;28;20025;-91
2021/09/06 08:15:58;;;;;;;26.85;17.08;;;17.10;99.90;;;;;;5037488;28;20026;-93
2021/09/06 08:18:23;;;;;;;28.63;16.17;;;17.10;99.90;;;;;;5024781;28;20086;-90
2021/09/06 08:20:50;;;;;;;27.08;15.38;;;17.20;99.90;;;;;;5045325;28;20037;-90
2021/09/06 08:23:16;;;;;;;31.30;14.98;;;17.40;99.90;;;;;;5037431;28;20029;-91
2021/09/06 08:25:41;;;;;;;30.77;17.58;;;17.50;99.90;;;;;;5038450;28;20364;-92
2021/09/06 08:28:07;;;;;;;26.40;16.50;;;17.60;99.90;;;;;;5036221;28;20033;-92
2021/09/06 08:30:33;;;;;;;31.17;15.60;;;17.70;99.90;;;;;;5037007;28;20021;-91
2021/09/06 08:32:59;;;;;;;34.38;17.02;;;17.80;99.90;;;;;;5037792;28;20545;-91
2021/09/06 08:35:25;;;;;;;29.40;16.70;;;17.90;99.90;;;;;;5036703;28;20026;-92
2021/09/06 08:37:50;;;;;;;37.38;17.77;;;18.00;99.90;;;;;;5037981;28;20109;-92
2021/09/06 08:40:16;;;;;;;33.10;18.58;;;18.10;99.90;;;;;;5035709;28;20032;-91
2021/09/06 08:42:42;;;;;;;34.67;18.30;;;18.30;99.90;;;;;;5036602;28;20034;-91
2021/09/06 08:45:10;;;;;;;32.92;18.80;;;18.40;99.90;;;;;;5039476;28;20021;-89
2021/09/06 08:47:36;;;;;;;36.67;20.13;;;18.50;99.90;;;;;;5035492;28;20482;-89
2021/09/06 08:50:08;;;;;;;38.13;19.38;;;18.70;99.90;;;;;;5035026;28;20060;-91
2021/09/06 08:52:34;;;;;;;32.25;16.27;;;18.80;99.90;;;;;;5034921;28;20099;-90
2021/09/06 08:54:59;;;;;;;39.45;20.52;;;19.00;99.90;;;;;;5038017;28;20025;-90
2021/09/06 08:57:25;;;;;;;41.03;21.15;;;19.30;99.90;;;;;;5036861;28;20036;-91
2021/09/06 08:59:58;;;;;;;42.13;21.13;;;19.50;99.90;;;;;;5037494;28;20031;-91
2021/09/06 09:02:24;;;;;;;24.45;14.20;;;19.70;99.90;;;;;;5034355;28;20033;-91
2021/09/06 09:05:06;;;;;;;35.88;17.45;;;20.00;99.90;;;;;;5035267;28;20029;-90
2021/09/06 09:07:32;;;;;;;36.45;18.73;;;20.20;99.90;;;;;;5034870;28;20045;-92
2021/09/06 09:09:59;;;;;;;35.20;18.73;;;20.50;99.90;;;;;;5034318;28;20024;-91
2021/09/06 09:12:26;;;;;;;36.53;17.73;;;20.70;99.90;;;;;;5035952;28;20036;-91
2021/09/06 09:15:00;;;;;;;37.25;21.52;;;20.90;99.90;;;;;;5034276;28;20032;-90
2021/09/06 09:17:27;;;;;;;39.72;21.73;;;21.10;99.90;;;;;;5034122;28;20035;-91
2021/09/06 09:19:54;;;;;;;38.60;20.45;;;21.30;99.90;;;;;;5034314;28;20124;-91
2021/09/06 09:22:29;;;;;;;32.15;20.15;;;21.50;99.90;;;;;;5034034;28;20022;-90
2021/09/06 09:24:57;;;;;;;37.80;20.60;;;21.70;99.90;;;;;;5033956;28;20045;-94
2021/09/06 09:27:32;;;;;;;37.85;20.42;;;21.90;99.90;;;;;;5033825;28;20508;-93
2021/09/06 09:29:58;;;;;;;29.63;16.60;;;22.20;99.90;;;;;;5033906;28;20032;-92
2021/09/06 09:32:24;;;;;;;34.30;20.25;;;22.40;99.90;;;;;;5032565;28;20029;-92
2021/09/06 09:34:50;;;;;;;41.08;23.08;;;22.50;99.90;;;;;;5034270;28;20060;-90
2021/09/06 09:37:25;;;;;;;38.88;22.50;;;22.70;99.90;;;;;;5033366;28;20071;-91
2021/09/06 09:40:02;;;;;;;42.40;22.77;;;22.80;99.90;;;;;;5043821;28;20059;-92
2021/09/06 09:42:28;;;;;;;45.25;23.45;;;23.00;99.90;;;;;;5047473;28;20036;-92
2021/09/06 09:44:56;;;;;;;45.88;25.10;;;23.30;99.90;;;;;;5048036;28;20034;-93
2021/09/06 09:47:24;;;;;;;42.38;24.10;;;23.40;99.90;;;;;;5042426;28;20068;-90
2021/09/06 09:49:52;;;;;;;33.47;17.30;;;23.50;99.90;;;;;;5042038;28;20024;-92
2021/09/06 09:52:20;;;;;;;43.28;19.60;;;23.50;99.90;;;;;;5039559;28;20037;-91
2021/09/06 09:54:47;;;;;;;37.83;21.35;;;23.60;99.90;;;;;;5038605;28;20562;-90
2021/09/06 09:57:14;;;;;;;36.03;21.73;;;23.60;99.90;;;;;;5035687;28;20031;-90
2021/09/06 09:59:41;;;;;;;39.22;20.65;;;23.70;99.90;;;;;;5031950;28;20052;-90
2021/09/06 10:02:08;;;;;;;44.53;21.00;;;23.70;99.90;;;;;;5031515;28;20021;-91
2021/09/06 10:05:00;;;;;;;35.55;21.52;;;23.80;99.90;;;;;;5046560;28;20029;-90
2021/09/06 10:07:30;;;;;;;28.08;18.20;;;23.80;99.90;;;;;;5032917;28;20033;-91
2021/09/06 10:09:56;;;;;;;36.78;20.42;;;23.80;99.90;;;;;;5032520;28;20479;-90
2021/09/06 10:12:29;;;;;;;34.85;20.52;;;23.80;99.70;;;;;;5032460;28;20026;-92
2021/09/06 10:15:00;;;;;;;36.78;20.35;;;23.80;99.60;;;;;;5029209;28;20056;-91
2021/09/06 10:17:53;;;;;;;35.10;20.20;;;23.70;99.40;;;;;;5031724;28;20457;-90
2021/09/06 10:20:21;;;;;;;27.75;16.90;;;23.70;99.30;;;;;;5026063;28;20092;-90
2021/09/06 10:22:48;;;;;;;35.05;20.05;;;23.70;99.30;;;;;;5031408;28;20029;-90
2021/09/06 10:25:20;;;;;;;35.47;20.70;;;23.70;99.40;;;;;;5031460;28;20856;-90
2021/09/06 10:28:05;;;;;;;28.73;18.63;;;23.70;99.20;;;;;;5030972;28;20037;-91
2021/09/06 10:30:44;;;;;;;33.70;19.17;;;23.60;99.30;;;;;;5031451;28;20525;-91
2021/09/06 10:33:28;;;;;;;30.95;18.80;;;23.60;99.30;;;;;;5030475;28;20053;-90
2021/09/06 10:36:10;;;;;;;32.03;19.08;;;23.50;99.50;;;;;;5028208;28;20037;-91
2021/09/06 10:38:42;;;;;;;38.20;20.17;;;23.50;99.70;;;;;;5028635;28;20025;-92
2021/09/06 10:41:17;;;;;;;33.25;19.15;;;23.50;99.80;;;;;;5030512;28;20029;-91
2021/09/06 10:43:45;;;;;;;32.25;19.08;;;23.50;99.80;;;;;;5044860;28;20018;-91
2021/09/06 10:46:12;;;;;;;22.98;15.00;;;23.40;99.80;;;;;;5031548;28;20109;-90
2021/09/06 10:48:38;;;;;;;26.83;15.20;;;23.40;99.80;;;;;;5031769;28;20136;-91
2021/09/06 10:51:04;;;;;;;32.58;18.33;;;23.40;99.70;;;;;;5032027;28;20056;-90
2021/09/06 10:53:30;;;;;;;31.48;17.52;;;23.50;99.80;;;;;;5034439;28;20021;-93
2021/09/06 10:55:58;;;;;;;31.80;17.98;;;23.60;99.90;;;;;;5031858;28;20465;-90
2021/09/06 10:58:26;;;;;;;29.60;17.38;;;23.80;99.80;;;;;;5031021;28;20071;-92
2021/09/06 11:00:53;;;;;;;26.58;17.48;;;24.00;99.50;;;;;;5031687;28;20033;-90
2021/09/06 11:03:21;;;;;;;27.20;17.02;;;24.10;99.00;;;;;;5031565;28;20036;-91
2021/09/06 11:05:55;;;;;;;22.42;14.65;;;24.20;98.50;;;;;;5032540;28;20467;-90
2021/09/06 11:08:26;;;;;;;31.45;17.27;;;24.30;97.90;;;;;;5045474;28;20044;-91
2021/09/06 11:10:53;;;;;;;28.92;16.00;;;24.40;97.40;;;;;;5033929;28;20224;-89
2021/09/06 11:13:19;;;;;;;33.47;17.83;;;24.40;97.20;;;;;;5035025;28;20029;-90
2021/09/06 11:15:45;;;;;;;26.17;15.63;;;24.40;96.70;;;;;;5035355;28;20026;-90
2021/09/06 11:18:10;;;;;;;31.27;17.15;;;24.50;96.70;;;;;;5034351;28;20037;-91
2021/09/06 11:20:38;;;;;;;24.55;16.05;;;24.50;96.60;;;;;;5031846;28;20089;-91
2021/09/06 11:23:09;;;;;;;27.88;16.67;;;24.50;96.50;;;;;;5028235;28;20098;-91
2021/09/06 11:25:38;;;;;;;27.15;15.95;;;24.60;96.20;;;;;;5033487;28;20025;-91
2021/09/06 11:28:05;;;;;;;26.38;16.17;;;24.60;96.00;;;;;;5035681;28;20037;-91
2021/09/06 11:30:33;;;;;;;27.70;15.85;;;24.60;96.00;;;;;;5036397;28;20052;-91
2021/09/06 11:33:02;;;;;;;27.20;18.17;;;24.70;96.00;;;;;;5036035;28;20025;-91
2021/09/06 11:35:28;;;;;;;27.73;17.15;;;24.60;95.80;;;;;;5035435;28;20112;-90
2021/09/06 11:37:54;;;;;;;28.65;17.55;;;24.60;95.60;;;;;;5036248;28;20029;-90
2021/09/06 11:40:20;;;;;;;20.63;14.00;;;24.50;95.70;;;;;;5037257;28;20022;-91
2021/09/06 11:42:46;;;;;;;28.65;15.88;;;24.50;95.70;;;;;;5037032;28;20033;-91
2021/09/06 11:45:14;;;;;;;27.95;16.63;;;24.50;95.70;;;;;;5037515;28;20065;-90
2021/09/06 11:47:40;;;;;;;28.73;16.75;;;24.40;95.70;;;;;;5037655;28;20077;-89
2021/09/06 11:50:12;;;;;;;26.23;16.17;;;24.30;95.70;;;;;;5037910;28;20058;-90
2021/09/06 11:52:40;;;;;;;26.50;17.70;;;24.30;95.90;;;;;;5037963;28;20132;-91
2021/09/06 11:55:11;;;;;;;28.30;16.52;;;24.40;96.10;;;;;;5036883;28;20057;-91
2021/09/06 11:57:37;;;;;;;27.13;16.67;;;24.50;96.20;;;;;;5036496;28;20053;-91
2021/09/06 12:00:04;;;;;;;28.80;17.52;;;24.70;96.00;;;;;;5037703;28;20040;-91
2021/09/06 12:02:30;;;;;;;26.95;15.68;;;24.80;95.60;;;;;;5036719;28;20021;-91
2021/09/06 12:05:14;;;;;;;28.40;16.02;;;25.00;95.30;;;;;;5035753;28;20033;-91
2021/09/06 12:07:50;;;;;;;24.38;14.73;;;25.00;94.70;;;;;;5035818;28;20040;-89
2021/09/06 12:10:31;;;;;;;25.17;15.90;;;24.90;94.40;;;;;;5036016;28;20065;-90
2021/09/06 12:13:01;;;;;;;26.90;14.57;;;24.80;94.30;;;;;;5036264;28;20047;-89
2021/09/06 12:15:28;;;;;;;24.63;14.45;;;24.80;94.30;;;;;;5036449;28;20111;-89
2021/09/06 12:18:06;;;;;;;26.27;15.63;;;24.90;94.40;;;;;;5036093;28;20581;-90
2021/09/06 12:20:34;;;;;;;21.85;14.15;;;25.00;94.20;;;;;;5033322;28;20509;-91
2021/09/06 12:23:00;;;;;;;26.45;15.57;;;25.00;94.00;;;;;;5036485;28;20430;-89
2021/09/06 12:25:26;;;;;;;19.80;13.25;;;25.10;94.00;;;;;;5036673;28;20112;-89
2021/09/06 12:27:51;;;;;;;31.55;17.33;;;25.30;93.80;;;;;;5036067;28;20037;-90
2021/09/06 12:30:17;;;;;;;28.52;15.73;;;25.50;93.40;;;;;;5034710;28;20064;-90